»·PEaware :: N23ND KLBF-KLNK

N23ND :: KLBF-KLNK

FLIGHT INFORMATION

Flight Status: Arrived
Operator: Privately registered:
United States
More flights under this callsign
Pilot: Marcus B. (1617)
Aircraft: BEECH AIRCRAFT A90-E90 KING AIR
(BE9L)
More flights by this aircraft type
Origin: KLBF North Platte Regl-Bird
United States
Destination: KLNK Lincoln Mun
United States
More flights between these airports :: More routes between these airports
Route:
File this flight plan on PilotEdge
Remarks:
Altitude:
(Current/Filed)
13,500ft
Speed:
(Current/Filed)
180kts
Departed: 10-Sep-19 06:52 PM
Arrived: 10-Sep-19 07:43 PM
Distance/Time
Traveled:
179nm/0:51
Distance/Time
To Go:
Arrived

Flight Plot

Page will automatically refresh every two minutes.

Flight plan parsing failed; only flown route is shown


Map Options




Map Legend


Flown Route
Filed Route
Departure Airport
Arrival Airport
Navaid (VOR, NDB)
Fix

Horizontal Profiles

Position Reports

Time Latitude Longitude Heading Altitude Ground
Speed
10-Sep-19 18:38 41.131472 -100.695276 270 2776ft 0kts
10-Sep-19 18:39 41.131472 -100.695276 270 2776ft 0kts
10-Sep-19 18:40 41.131472 -100.695276 270 2776ft 0kts
10-Sep-19 18:41 41.131472 -100.695276 270 2776ft 0kts
10-Sep-19 18:42 41.131472 -100.695276 270 2776ft 0kts
10-Sep-19 18:43 41.131472 -100.695276 270 2776ft 0kts
10-Sep-19 18:44 41.131472 -100.695276 270 2776ft 0kts
10-Sep-19 18:45 41.131472 -100.695276 270 2776ft 0kts
10-Sep-19 18:46 41.131472 -100.695276 270 2776ft 0kts
10-Sep-19 18:47 41.131472 -100.695276 270 2776ft 0kts
10-Sep-19 18:48 41.131473 -100.696478 269 2777ft 14kts
10-Sep-19 18:49 41.131101 -100.695675 89 2776ft 19kts
10-Sep-19 18:50 41.131109 -100.693784 91 2775ft 1kts
10-Sep-19 18:51 41.127395 -100.693033 180 2773ft 84kts
10-Sep-19 18:52 41.097150 -100.692947 189 4138ft 120kts
10-Sep-19 18:53 41.068241 -100.713624 189 5854ft 117kts
10-Sep-19 18:54 41.062452 -100.680239 73 7501ft 141kts
10-Sep-19 18:55 41.081019 -100.633310 76 8910ft 145kts
10-Sep-19 18:56 41.099340 -100.584089 73 10211ft 151kts
10-Sep-19 18:57 41.115814 -100.531765 92 11387ft 150kts
10-Sep-19 18:58 41.114975 -100.476238 101 12468ft 153kts
10-Sep-19 18:59 41.111926 -100.419345 101 13497ft 156kts
10-Sep-19 19:00 41.108691 -100.360960 101 14442ft 160kts
10-Sep-19 19:01 41.105324 -100.300940 101 15309ft 164kts
10-Sep-19 19:02 41.101551 -100.234590 100 15500ft 199kts
10-Sep-19 19:03 41.097168 -100.157745 99 15506ft 214kts
10-Sep-19 19:04 41.092554 -100.077991 99 15515ft 219kts
10-Sep-19 19:05 41.087796 -99.996757 99 15489ft 222kts
10-Sep-19 19:06 41.082975 -99.915427 99 15516ft 220kts
10-Sep-19 19:07 41.078104 -99.834246 99 15516ft 220kts
10-Sep-19 19:08 41.073984 -99.766372 99 15521ft 222kts
10-Sep-19 19:09 41.132792 -100.692868 181 2775ft 0kts
10-Sep-19 19:10 41.132792 -100.692868 181 2775ft 0kts
10-Sep-19 19:11 41.132792 -100.692868 181 2775ft 0kts
10-Sep-19 19:12 41.132792 -100.692868 181 2775ft 0kts
10-Sep-19 19:13 41.132792 -100.692868 181 2775ft 0kts
10-Sep-19 19:14 41.132792 -100.692868 181 2775ft 0kts
10-Sep-19 19:15 41.120426 -100.687230 103 3228ft 125kts
10-Sep-19 19:16 41.123921 -100.632581 104 5188ft 129kts
10-Sep-19 19:17 41.114561 -100.467250 108 10113ft 135kts
10-Sep-19 19:18 41.102340 -100.248421 100 11502ft 218kts
10-Sep-19 19:19 41.085467 -99.957031 100 11537ft 218kts
10-Sep-19 19:20 41.067797 -99.665429 99 12766ft 196kts
10-Sep-19 19:21 41.050422 -99.389615 100 14422ft 175kts
10-Sep-19 19:22 41.037631 -99.193619 100 16360ft 166kts
10-Sep-19 19:23 41.019761 -98.927504 99 15543ft 217kts
10-Sep-19 19:24 41.002130 -98.673592 99 15559ft 215kts
10-Sep-19 19:25 40.983816 -98.418061 99 15563ft 215kts
10-Sep-19 19:26 40.976188 -98.173612 86 15561ft 217kts
10-Sep-19 19:27 40.988647 -98.042950 85 15320ft 228kts
10-Sep-19 19:28 40.997363 -97.951408 86 13952ft 254kts
10-Sep-19 19:29 41.010219 -97.815247 86 12204ft 246kts
10-Sep-19 19:30 41.023360 -97.674322 88 10462ft 242kts
10-Sep-19 19:31 41.050079 -97.381057 90 7719ft 225kts
10-Sep-19 19:32 41.072701 -97.126348 91 5978ft 226kts
10-Sep-19 19:33 41.088750 -96.941500 91 5459ft 210kts
10-Sep-19 19:34 41.077454 -96.869835 112 4729ft 193kts
10-Sep-19 19:35 41.064321 -96.806496 113 3895ft 166kts
10-Sep-19 19:36 41.053067 -96.752425 113 3739ft 151kts
10-Sep-19 19:37 41.020819 -96.748347 185 3328ft 135kts
10-Sep-19 19:38 40.972036 -96.750051 179 3031ft 195kts
10-Sep-19 19:39 40.924753 -96.750363 179 2458ft 127kts
10-Sep-19 19:40 40.897767 -96.750525 178 1966ft 97kts
10-Sep-19 19:41 40.870533 -96.750987 178 1468ft 97kts
10-Sep-19 19:42 40.852814 -96.750744 180 1222ft 22kts
10-Sep-19 19:43 40.852157 -96.749705 88 1222ft 0kts

Navigation Log

Ident Type
Flight plan parsing failed, navigation log unavailable